Time;durP1;ratioP1;P1;durP2;ratioP2;P2;SDS_P1;SDS_P2;PMS_P1;PMS_P2;Temp;Humidity;BMP_temperature;BMP_pressure;BME280_temperature;BME280_humidity;BME280_pressure;Samples;Min_cycle;Max_cycle;Signal;HPM_P1;HPM_P2
2023/09/02 00:00:13;;;;;;;4.85;2.72;;;;;;;24.66;55.70;99088.50;2077599;28;20057;-56
2023/09/02 00:01:15;;;;;;;4.68;2.40;;;;;;;24.69;55.16;99085.31;2077325;28;20083;-54
2023/09/02 00:02:15;;;;;;;4.53;2.78;;;;;;;24.69;55.34;99078.00;2078931;28;20050;-53
2023/09/02 00:03:17;;;;;;;5.20;2.30;;;;;;;24.69;55.21;99074.47;2078660;28;20045;-48
2023/09/02 00:04:18;;;;;;;3.88;2.65;;;;;;;24.67;55.34;99079.31;2078737;28;20057;-50
2023/09/02 00:05:20;;;;;;;4.82;2.58;;;;;;;24.64;55.56;99077.88;2078851;28;20692;-51
2023/09/02 00:06:21;;;;;;;4.53;2.22;;;;;;;24.61;55.89;99075.63;2076366;28;20534;-54
2023/09/02 00:07:22;;;;;;;5.25;2.58;;;;;;;24.66;55.54;99080.38;2076740;28;20049;-49
2023/09/02 00:08:25;;;;;;;3.05;2.10;;;;;;;24.64;55.52;99079.78;2077517;28;20064;-49
2023/09/02 00:09:26;;;;;;;4.25;2.55;;;;;;;24.67;55.39;99087.44;2075241;28;20242;-51
2023/09/02 00:10:27;;;;;;;3.85;2.55;;;;;;;24.70;55.40;99076.94;2076523;28;20447;-50
2023/09/02 00:11:29;;;;;;;6.90;2.78;;;;;;;24.71;55.23;99075.91;2077604;28;20152;-49
2023/09/02 00:12:30;;;;;;;2.88;2.28;;;;;;;24.72;54.95;99077.53;2077122;28;20572;-53
2023/09/02 00:13:32;;;;;;;6.70;2.60;;;;;;;24.77;54.68;99076.84;2075385;28;20053;-49
2023/09/02 00:14:33;;;;;;;5.43;2.90;;;;;;;24.78;54.79;99078.50;2079121;28;20506;-50
2023/09/02 00:15:35;;;;;;;5.65;2.75;;;;;;;24.79;54.66;99073.88;2078412;28;20715;-52
2023/09/02 00:16:36;;;;;;;4.10;2.28;;;;;;;24.75;55.05;99068.94;2077016;28;20338;-49
2023/09/02 00:17:37;;;;;;;5.95;2.75;;;;;;;24.74;54.98;99072.72;2077752;28;20519;-48
2023/09/02 00:18:38;;;;;;;6.18;2.30;;;;;;;24.77;55.02;99070.56;2079448;28;20056;-49
2023/09/02 00:19:40;;;;;;;4.90;2.22;;;;;;;24.75;54.80;99073.53;2079252;28;20044;-49
2023/09/02 00:20:41;;;;;;;5.50;2.70;;;;;;;24.71;55.20;99073.19;2078754;28;20061;-48
2023/09/02 00:21:43;;;;;;;4.93;2.58;;;;;;;24.67;55.31;99077.41;2080204;28;20420;-48
2023/09/02 00:22:44;;;;;;;8.40;2.95;;;;;;;24.63;54.96;99073.53;2077367;28;20045;-48
2023/09/02 00:23:47;;;;;;;6.55;2.45;;;;;;;24.63;55.25;99075.41;2080333;28;20072;-48
2023/09/02 00:24:48;;;;;;;4.68;2.50;;;;;;;24.60;55.24;99075.84;2079137;28;20053;-49
2023/09/02 00:25:50;;;;;;;4.35;3.05;;;;;;;24.58;55.55;99067.16;2079901;28;20145;-49
2023/09/02 00:26:51;;;;;;;4.53;2.55;;;;;;;24.57;55.80;99066.28;2080077;28;20141;-49
2023/09/02 00:27:53;;;;;;;5.25;2.50;;;;;;;24.57;55.77;99071.72;2082199;28;20633;-49
2023/09/02 00:28:53;;;;;;;7.65;3.10;;;;;;;24.53;55.92;99074.06;2079601;28;20215;-48
2023/09/02 00:29:55;;;;;;;5.28;2.80;;;;;;;24.48;56.12;99075.81;2082364;28;20210;-49
2023/09/02 00:30:56;;;;;;;4.25;2.45;;;;;;;24.47;55.98;99076.91;2078059;28;20514;-51
2023/09/02 00:31:58;;;;;;;4.00;2.30;;;;;;;24.49;56.04;99072.06;2080838;28;20053;-50
2023/09/02 00:32:59;;;;;;;7.50;2.40;;;;;;;24.49;55.85;99080.22;2080180;28;20049;-54
2023/09/02 00:34:00;;;;;;;4.85;1.92;;;;;;;24.49;56.01;99072.06;2080344;28;20396;-49
2023/09/02 00:35:01;;;;;;;3.47;2.22;;;;;;;24.51;55.40;99072.66;2080398;28;20041;-49
2023/09/02 00:36:02;;;;;;;5.13;2.42;;;;;;;24.49;56.00;99069.38;2077257;28;20131;-50
2023/09/02 00:37:04;;;;;;;8.02;4.05;;;;;;;24.51;55.51;99069.94;2078530;28;20861;-50
2023/09/02 00:38:05;;;;;;;6.82;2.92;;;;;;;24.53;55.97;99070.53;2079192;28;20076;-50
2023/09/02 00:39:08;;;;;;;5.45;2.40;;;;;;;24.53;55.30;99071.38;2079900;28;20072;-49
2023/09/02 00:40:13;;;;;;;4.50;2.63;;;;;;;24.49;55.88;99070.19;2080538;28;20060;-53
2023/09/02 00:41:22;;;;;;;3.83;2.40;;;;;;;24.51;55.47;99069.94;2078253;28;20439;-51
2023/09/02 00:42:26;;;;;;;8.75;2.80;;;;;;;24.55;55.36;99073.84;2080740;28;20045;-51
2023/09/02 00:43:29;;;;;;;7.00;2.00;;;;;;;24.57;55.57;99071.72;2079914;28;20509;-51
2023/09/02 00:44:31;;;;;;;3.72;2.92;;;;;;;24.55;55.69;99065.72;2079495;28;20052;-53
2023/09/02 00:45:34;;;;;;;6.78;2.63;;;;;;;24.59;55.60;99069.59;2079591;28;20131;-48
2023/09/02 00:46:35;;;;;;;3.75;3.03;;;;;;;24.56;55.48;99070.06;2079126;28;20056;-47
2023/09/02 00:47:37;;;;;;;7.07;2.30;;;;;;;24.58;55.53;99072.56;2080643;28;20061;-49
2023/09/02 00:48:38;;;;;;;5.53;2.45;;;;;;;24.56;55.48;99072.78;2077952;28;20045;-49
2023/09/02 00:49:39;;;;;;;6.82;2.92;;;;;;;24.54;55.66;99069.47;2080635;28;20044;-50
2023/09/02 00:50:41;;;;;;;6.07;2.88;;;;;;;24.51;55.53;99072.66;2080986;28;20049;-49
2023/09/02 00:51:41;;;;;;;6.38;2.45;;;;;;;24.49;56.11;99069.38;2079019;28;20053;-49
2023/09/02 00:52:44;;;;;;;3.55;3.25;;;;;;;24.46;55.84;99069.81;2079803;28;20540;-52
2023/09/02 00:53:45;;;;;;;3.20;2.20;;;;;;;24.41;56.07;99067.78;2078540;28;20510;-51
2023/09/02 00:54:48;;;;;;;3.88;2.60;;;;;;;24.42;56.07;99074.84;2082047;28;20041;-49
2023/09/02 00:55:49;;;;;;;4.53;2.20;;;;;;;24.44;56.06;99074.66;2080949;28;20045;-57
2023/09/02 00:56:51;;;;;;;6.28;2.95;;;;;;;24.46;55.83;99067.94;2079898;28;20041;-54
2023/09/02 00:57:53;;;;;;;4.22;2.88;;;;;;;24.47;55.86;99066.06;2078449;28;20814;-51
2023/09/02 00:58:59;;;;;;;3.13;2.00;;;;;;;24.48;56.08;99063.09;2080695;28;20061;-49
2023/09/02 01:00:04;;;;;;;4.50;2.28;;;;;;;24.47;56.05;99063.34;2080211;28;20141;-52
2023/09/02 01:01:05;;;;;;;9.05;2.90;;;;;;;24.42;56.51;99063.16;2080686;28;20057;-51
2023/09/02 01:02:08;;;;;;;4.15;2.47;;;;;;;24.47;56.19;99066.06;2080268;28;20060;-54
2023/09/02 01:03:11;;;;;;;6.30;2.35;;;;;;;24.52;55.67;99060.75;2080983;28;20137;-48
2023/09/02 01:04:11;;;;;;;3.15;2.50;;;;;;;24.56;55.47;99059.22;2079419;28;20411;-51
2023/09/02 01:05:14;;;;;;;4.20;2.53;;;;;;;24.59;55.56;99061.47;2081457;28;20100;-55
2023/09/02 01:06:16;;;;;;;4.18;2.95;;;;;;;24.62;54.95;99066.44;2076736;28;20044;-48
2023/09/02 01:07:19;;;;;;;7.65;2.33;;;;;;;24.64;55.37;99060.78;2079574;28;20072;-50
2023/09/02 01:08:20;;;;;;;3.60;2.47;;;;;;;24.63;55.12;99070.00;2077337;28;20132;-55
2023/09/02 01:09:22;;;;;;;4.03;2.17;;;;;;;24.62;54.71;99068.31;2076559;28;20067;-53
2023/09/02 01:10:25;;;;;;;2.85;1.83;;;;;;;24.60;55.47;99071.28;2081127;28;20806;-49
2023/09/02 01:11:28;;;;;;;5.72;2.03;;;;;;;24.58;55.04;99067.97;2076007;28;20491;-52
2023/09/02 01:12:29;;;;;;;5.78;3.05;;;;;;;24.57;55.10;99069.00;2080309;28;20675;-50
2023/09/02 01:13:32;;;;;;;6.20;2.63;;;;;;;24.55;55.38;99068.44;2076841;28;20052;-48
2023/09/02 01:14:32;;;;;;;7.45;2.22;;;;;;;24.56;55.21;99061.94;2080360;28;20489;-52
2023/09/02 01:15:33;;;;;;;6.93;2.50;;;;;;;24.55;55.24;99068.44;2081512;28;20046;-50
2023/09/02 01:16:35;;;;;;;4.68;2.58;;;;;;;24.58;55.35;99067.16;2077252;28;20114;-52
2023/09/02 01:17:36;;;;;;;9.60;3.30;;;;;;;24.57;55.52;99066.28;2079508;28;20049;-52
2023/09/02 01:18:37;;;;;;;3.60;1.83;;;;;;;24.54;55.30;99061.34;2078057;28;20079;-54
2023/09/02 01:19:40;;;;;;;2.95;2.13;;;;;;;24.52;55.40;99068.91;2079675;28;20090;-51
2023/09/02 01:21:16;;;;;;;5.50;3.47;;;;;;;24.49;55.70;99066.66;2076934;28;20042;-52
2023/09/02 01:22:43;;;;;;;5.22;2.30;;;;;;;24.50;55.47;99068.28;2078950;28;20088;-50
2023/09/02 01:24:05;;;;;;;4.47;1.77;;;;;;;24.56;54.69;99061.94;2079491;28;20056;-49
2023/09/02 01:25:15;;;;;;;4.88;2.13;;;;;;;24.57;55.41;99066.28;2078432;28;20060;-48
2023/09/02 01:26:34;;;;;;;3.13;1.63;;;;;;;24.58;54.78;99067.97;2077760;28;20056;-49
2023/09/02 01:27:40;;;;;;;3.97;1.88;;;;;;;24.62;54.83;99060.19;2078437;28;20046;-52
2023/09/02 01:28:43;;;;;;;6.97;2.72;;;;;;;24.60;55.17;99059.56;2079647;28;20056;-49
2023/09/02 01:29:54;;;;;;;3.63;1.90;;;;;;;24.63;55.11;99068.09;2080748;28;20495;-49
2023/09/02 01:30:55;;;;;;;5.85;2.38;;;;;;;24.65;54.85;99067.84;2077357;28;20676;-50
2023/09/02 01:31:58;;;;;;;3.45;1.80;;;;;;;24.64;54.97;99063.50;2080888;28;20059;-50
2023/09/02 01:33:04;;;;;;;3.28;1.75;;;;;;;24.65;54.34;99057.81;2079175;28;21964;-52
2023/09/02 01:34:11;;;;;;;5.53;2.45;;;;;;;24.67;54.64;99063.03;2078666;28;20045;-51
2023/09/02 01:35:17;;;;;;;4.25;2.03;;;;;;;24.65;54.64;99078.69;2079878;28;20964;-50
2023/09/02 01:36:20;;;;;;;4.30;1.98;;;;;;;24.63;54.67;99068.09;2079024;28;20045;-49
2023/09/02 01:37:23;;;;;;;5.68;2.70;;;;;;;24.65;54.55;99074.09;2069470;28;20060;-49
2023/09/02 01:38:27;;;;;;;4.50;1.83;;;;;;;24.62;54.72;99066.44;2080863;28;20108;-48
2023/09/02 01:39:30;;;;;;;5.32;2.25;;;;;;;24.65;55.11;99074.09;2079132;28;20115;-48
2023/09/02 01:40:34;;;;;;;5.88;2.90;;;;;;;24.66;54.92;99070.34;2078599;28;20049;-49
2023/09/02 01:41:35;;;;;;;3.67;2.40;;;;;;;24.64;54.66;99077.06;2080117;28;20939;-53
2023/09/02 01:42:39;;;;;;;2.78;1.88;;;;;;;24.62;54.89;99071.84;2078073;28;20144;-51
2023/09/02 01:43:44;;;;;;;3.97;2.50;;;;;;;24.60;54.91;99074.00;2078560;28;20049;-53
2023/09/02 01:44:46;;;;;;;4.70;2.30;;;;;;;24.56;54.88;99069.25;2079789;28;20907;-52
2023/09/02 01:45:48;;;;;;;7.68;2.25;;;;;;;24.55;54.80;99071.16;2077854;28;20044;-49
2023/09/02 01:46:51;;;;;;;4.57;2.00;;;;;;;24.54;55.51;99072.19;2080083;28;20053;-50
2023/09/02 01:47:52;;;;;;;5.22;2.47;;;;;;;24.55;54.89;99067.59;2078365;28;20049;-49
2023/09/02 01:48:54;;;;;;;5.43;2.00;;;;;;;24.49;55.45;99063.94;2079283;28;20049;-51
2023/09/02 01:49:55;;;;;;;4.32;2.13;;;;;;;24.50;55.41;99068.28;2078827;28;20063;-50
2023/09/02 01:50:58;;;;;;;3.47;2.63;;;;;;;24.53;54.88;99074.06;2075125;28;20057;-50
2023/09/02 01:52:00;;;;;;;2.80;2.22;;;;;;;24.53;55.30;99065.13;2077020;28;20053;-50
2023/09/02 01:53:02;;;;;;;5.80;2.00;;;;;;;24.57;54.57;99071.72;2074275;28;20075;-51
2023/09/02 01:54:04;;;;;;;4.97;2.35;;;;;;;24.62;55.02;99071.03;2078484;28;20045;-49
2023/09/02 01:55:06;;;;;;;6.13;2.72;;;;;;;24.59;54.93;99058.75;2078756;28;20499;-52
2023/09/02 01:56:08;;;;;;;5.22;2.08;;;;;;;24.54;54.89;99061.34;2078099;28;20620;-49
2023/09/02 01:57:09;;;;;;;4.85;2.17;;;;;;;24.53;55.29;99057.81;2079657;28;20076;-48
2023/09/02 01:58:13;;;;;;;6.80;2.70;;;;;;;24.53;55.35;99063.22;2079488;28;20084;-48
2023/09/02 01:59:14;;;;;;;7.68;2.35;;;;;;;24.52;55.06;99058.88;2078891;28;20052;-49
2023/09/02 02:00:16;;;;;;;5.40;2.17;;;;;;;24.52;55.21;99058.88;2077719;28;20140;-48
2023/09/02 02:01:17;;;;;;;5.65;2.25;;;;;;;24.48;55.58;99054.97;2079767;28;20051;-49
2023/09/02 02:02:19;;;;;;;4.35;2.20;;;;;;;24.50;55.63;99052.03;2077485;28;20051;-49
2023/09/02 02:03:25;;;;;;;4.47;2.35;;;;;;;24.53;55.09;99051.56;2080538;28;20048;-51
2023/09/02 02:04:34;;;;;;;3.40;2.60;;;;;;;24.54;55.17;99050.50;2076213;28;20083;-49
2023/09/02 02:05:42;;;;;;;3.53;1.85;;;;;;;24.54;55.17;99045.06;2078023;28;20546;-48
2023/09/02 02:06:46;;;;;;;7.25;2.65;;;;;;;24.56;55.10;99047.56;2080778;28;20059;-49
2023/09/02 02:07:52;;;;;;;3.78;2.28;;;;;;;24.58;55.23;99045.44;2077714;28;20056;-48
2023/09/02 02:08:59;;;;;;;6.20;2.25;;;;;;;24.55;55.22;99041.31;2074798;28;20094;-50
2023/09/02 02:10:03;;;;;;;7.45;2.08;;;;;;;24.55;55.15;99043.22;2075685;28;20060;-49
2023/09/02 02:11:06;;;;;;;5.57;2.30;;;;;;;24.55;55.30;99040.50;2078340;28;20049;-50
2023/09/02 02:12:08;;;;;;;5.90;2.00;;;;;;;24.57;55.19;99044.59;2079577;28;21422;-49
2023/09/02 02:13:10;;;;;;;3.85;2.08;;;;;;;24.59;54.88;99033.53;2077644;28;20041;-49
2023/09/02 02:14:12;;;;;;;3.28;2.17;;;;;;;24.59;54.94;99028.94;2078506;28;20076;-51
2023/09/02 02:15:14;;;;;;;3.25;2.10;;;;;;;24.60;54.61;99027.03;2078175;28;20048;-50
2023/09/02 02:16:14;;;;;;;5.63;2.42;;;;;;;24.59;54.84;99031.63;2078886;28;20049;-51
2023/09/02 02:17:16;;;;;;;3.83;2.17;;;;;;;24.60;54.96;99022.47;2078189;28;20045;-48
2023/09/02 02:18:17;;;;;;;5.38;2.08;;;;;;;24.61;54.90;99024.09;2080335;28;20044;-50
2023/09/02 02:19:19;;;;;;;5.57;2.50;;;;;;;24.61;54.54;99024.09;2077568;28;20045;-49
2023/09/02 02:20:21;;;;;;;4.15;1.83;;;;;;;24.63;54.80;99026.59;2077344;28;20156;-53
2023/09/02 02:21:23;;;;;;;2.78;1.92;;;;;;;24.61;54.69;99026.81;2080847;28;20123;-49
2023/09/02 02:22:24;;;;;;;3.13;1.77;;;;;;;24.62;54.39;99031.16;2077977;28;20049;-50
2023/09/02 02:23:25;;;;;;;3.58;1.92;;;;;;;24.61;54.65;99024.09;2077897;28;20483;-48
2023/09/02 02:24:27;;;;;;;3.20;1.88;;;;;;;24.64;54.76;99020.09;2080616;28;20044;-49
2023/09/02 02:25:27;;;;;;;2.25;1.70;;;;;;;24.64;54.83;99026.34;2079467;28;20059;-49
2023/09/02 02:26:29;;;;;;;7.00;2.67;;;;;;;24.64;54.35;99026.34;2080296;28;20159;-50
2023/09/02 02:27:30;;;;;;;2.95;2.17;;;;;;;24.65;54.34;99014.44;2077679;28;20072;-51
2023/09/02 02:28:32;;;;;;;5.38;2.00;;;;;;;24.65;54.39;99028.00;2077441;28;20128;-50
2023/09/02 02:29:35;;;;;;;2.08;1.83;;;;;;;24.61;54.20;99015.97;2081221;28;20052;-49
2023/09/02 02:30:37;;;;;;;4.95;2.10;;;;;;;24.62;54.17;99024.94;2076521;28;20053;-49
2023/09/02 02:31:37;;;;;;;4.07;2.65;;;;;;;24.57;54.48;99025.63;2078625;28;20057;-53
2023/09/02 02:32:39;;;;;;;3.08;2.10;;;;;;;24.55;54.57;99024.22;2079300;28;20224;-48
2023/09/02 02:33:40;;;;;;;8.93;1.80;;;;;;;24.55;54.92;99019.63;2077342;28;20421;-49
2023/09/02 02:34:42;;;;;;;3.97;2.10;;;;;;;24.53;54.83;99021.72;2079851;28;20136;-50
2023/09/02 02:35:43;;;;;;;4.00;2.25;;;;;;;24.53;55.01;99021.72;2077402;28;20570;-52
2023/09/02 02:36:45;;;;;;;6.30;2.55;;;;;;;24.52;54.86;99028.22;2079910;27;20055;-48
2023/09/02 02:37:46;;;;;;;4.50;2.00;;;;;;;24.53;54.84;99027.97;2077592;28;20045;-51
2023/09/02 02:38:46;;;;;;;4.13;2.25;;;;;;;24.53;54.83;99027.97;2077463;28;20125;-48
2023/09/02 02:39:48;;;;;;;4.57;2.13;;;;;;;24.52;54.71;99036.34;2080186;28;20056;-50
2023/09/02 02:40:49;;;;;;;5.63;2.10;;;;;;;24.50;54.57;99024.91;2079879;28;20076;-50
2023/09/02 02:41:51;;;;;;;3.65;1.92;;;;;;;24.46;54.78;99038.13;2079585;28;20407;-53
2023/09/02 02:42:52;;;;;;;5.65;2.47;;;;;;;24.48;54.69;99035.16;2080136;28;20095;-55
2023/09/02 02:43:54;;;;;;;5.30;2.13;;;;;;;24.46;55.06;99029.13;2079655;28;20052;-56
2023/09/02 02:44:56;;;;;;;4.07;2.53;;;;;;;24.47;55.23;99034.34;2079715;28;21678;-52
2023/09/02 02:45:58;;;;;;;6.88;2.63;;;;;;;24.46;55.06;99032.69;2075877;28;20045;-49
2023/09/02 02:46:58;;;;;;;3.90;1.98;;;;;;;24.46;55.17;99038.13;2077616;28;20162;-52
2023/09/02 02:48:01;;;;;;;6.72;2.50;;;;;;;24.43;55.12;99044.00;2076915;28;20053;-55
2023/09/02 02:49:01;;;;;;;4.55;2.08;;;;;;;24.37;55.04;99041.34;2075908;28;20076;-52
2023/09/02 02:50:04;;;;;;;4.28;2.33;;;;;;;24.38;55.20;99043.03;2078886;28;20056;-54
2023/09/02 02:51:04;;;;;;;4.82;2.33;;;;;;;24.30;55.59;99041.44;2078491;28;20095;-52
2023/09/02 02:52:06;;;;;;;6.53;2.60;;;;;;;24.27;55.71;99037.31;2077163;28;20049;-53
2023/09/02 02:53:07;;;;;;;4.22;2.05;;;;;;;24.28;55.91;99030.84;2075307;28;20408;-52
2023/09/02 02:54:09;;;;;;;4.22;2.33;;;;;;;24.28;55.73;99043.56;2074386;28;20049;-50
2023/09/02 02:55:10;;;;;;;4.07;2.15;;;;;;;24.27;55.87;99044.63;2081254;28;20053;-50
2023/09/02 02:56:12;;;;;;;3.47;2.15;;;;;;;24.26;55.80;99038.34;2076679;28;20127;-50
2023/09/02 02:57:13;;;;;;;6.28;2.40;;;;;;;24.29;55.73;99035.22;2078106;28;20053;-49
2023/09/02 02:58:15;;;;;;;4.38;2.53;;;;;;;24.28;55.86;99032.72;2077902;28;20238;-50
2023/09/02 02:59:17;;;;;;;4.60;2.60;;;;;;;24.28;55.66;99038.97;2076285;28;21775;-53
2023/09/02 03:00:21;;;;;;;5.10;2.20;;;;;;;24.31;55.55;99037.69;2078061;28;20045;-48
2023/09/02 03:01:22;;;;;;;6.53;2.17;;;;;;;24.28;55.84;99038.97;2081511;28;20049;-48
2023/09/02 03:02:23;;;;;;;7.65;3.97;;;;;;;24.29;55.80;99037.91;2076682;28;20049;-49
2023/09/02 03:03:24;;;;;;;5.45;2.05;;;;;;;24.28;55.33;99041.66;2075740;28;20137;-50
2023/09/02 03:04:26;;;;;;;4.20;2.25;;;;;;;24.29;55.98;99047.91;2076434;28;20049;-53
2023/09/02 03:05:27;;;;;;;6.90;2.00;;;;;;;24.30;55.92;99041.44;2076945;28;20087;-55
2023/09/02 03:06:28;;;;;;;5.50;2.03;;;;;;;24.28;55.44;99044.38;2078105;28;20041;-49
2023/09/02 03:07:29;;;;;;;7.15;2.40;;;;;;;24.28;55.73;99046.28;2079340;28;20044;-48
2023/09/02 03:08:30;;;;;;;2.38;1.80;;;;;;;24.29;55.48;99048.75;2079189;28;20420;-49
2023/09/02 03:09:33;;;;;;;5.75;2.42;;;;;;;24.27;55.75;99048.16;2077604;28;20507;-48
2023/09/02 03:10:35;;;;;;;2.85;2.38;;;;;;;24.22;55.57;99044.50;2076810;28;20052;-51
2023/09/02 03:11:37;;;;;;;3.67;1.92;;;;;;;24.25;55.66;99036.72;2077856;28;20049;-50
2023/09/02 03:12:38;;;;;;;2.38;1.70;;;;;;;24.24;55.91;99045.09;2078403;28;20419;-50
2023/09/02 03:13:40;;;;;;;5.38;2.42;;;;;;;24.25;55.55;99041.31;2074821;28;20045;-51
2023/09/02 03:14:41;;;;;;;3.80;2.03;;;;;;;24.23;55.92;99048.84;2080496;28;20513;-49
2023/09/02 03:15:51;;;;;;;5.50;2.42;;;;;;;24.22;55.58;99048.03;2078991;28;20045;-50
2023/09/02 03:16:51;;;;;;;6.82;3.10;;;;;;;24.23;55.82;99038.81;2076865;28;20058;-51
2023/09/02 03:17:53;;;;;;;7.88;2.13;;;;;;;24.25;55.69;99036.72;2073037;28;20052;-48
2023/09/02 03:18:55;;;;;;;11.52;2.80;;;;;;;24.25;55.92;99042.13;2077848;28;20045;-49
2023/09/02 03:19:56;;;;;;;6.40;2.50;;;;;;;24.26;55.37;99043.78;2075579;28;20057;-49
2023/09/02 03:21:02;;;;;;;4.13;2.50;;;;;;;24.28;55.39;99041.66;2076841;28;20148;-49
2023/09/02 03:22:04;;;;;;;5.07;2.22;;;;;;;24.28;55.28;99038.97;2077465;28;20488;-49
2023/09/02 03:23:05;;;;;;;5.72;3.20;;;;;;;24.29;55.42;99037.91;2075729;28;20561;-51
2023/09/02 03:24:07;;;;;;;5.35;2.40;;;;;;;24.31;55.15;99038.50;2076967;28;20056;-50
2023/09/02 03:25:08;;;;;;;3.17;1.90;;;;;;;24.39;55.04;99039.25;2078915;28;20056;-49
2023/09/02 03:26:10;;;;;;;2.05;1.88;;;;;;;24.37;55.27;99046.75;2079464;28;20091;-49
2023/09/02 03:27:11;;;;;;;5.63;2.80;;;;;;;24.32;54.94;99044.75;2075411;28;20042;-50
2023/09/02 03:28:13;;;;;;;3.05;1.88;;;;;;;24.29;55.23;99040.63;2074438;28;20049;-48
2023/09/02 03:29:15;;;;;;;4.18;2.10;;;;;;;24.28;55.42;99041.66;2077642;28;20491;-49
2023/09/02 03:30:15;;;;;;;5.95;1.80;;;;;;;24.26;55.26;99043.78;2077621;28;20123;-51
2023/09/02 03:31:19;;;;;;;7.03;2.97;;;;;;;24.27;55.71;99041.91;2077553;28;20053;-50
2023/09/02 03:32:20;;;;;;;4.47;2.00;;;;;;;24.24;55.50;99040.50;2073091;28;20053;-57
2023/09/02 03:33:22;;;;;;;4.07;2.17;;;;;;;24.22;55.76;99045.31;2077805;28;20049;-47
2023/09/02 03:34:22;;;;;;;4.90;2.08;;;;;;;24.25;55.43;99039.44;2079179;28;20135;-48
2023/09/02 03:35:25;;;;;;;6.55;2.10;;;;;;;24.29;55.57;99037.91;2077694;28;20048;-49
2023/09/02 03:36:25;;;;;;;2.45;1.77;;;;;;;24.34;54.92;99039.09;2077977;28;20701;-49
2023/09/02 03:37:27;;;;;;;2.88;2.00;;;;;;;24.35;55.06;99032.59;2073078;28;20136;-50
2023/09/02 03:38:28;;;;;;;4.63;2.15;;;;;;;24.29;55.17;99037.91;2077644;28;20045;-48
2023/09/02 03:39:31;;;;;;;6.20;2.17;;;;;;;24.28;55.37;99035.44;2078850;28;20060;-48
2023/09/02 03:40:33;;;;;;;6.63;2.65;;;;;;;24.27;55.48;99039.22;2077276;28;20080;-49
2023/09/02 03:41:37;;;;;;;5.78;2.83;;;;;;;24.27;55.09;99036.50;2076008;28;20075;-50
2023/09/02 03:42:38;;;;;;;5.70;2.22;;;;;;;24.26;55.51;99038.34;2078045;28;20048;-52
2023/09/02 03:43:40;;;;;;;4.20;2.08;;;;;;;24.28;55.43;99038.97;2078457;28;20045;-50
2023/09/02 03:44:40;;;;;;;4.07;1.75;;;;;;;24.31;55.16;99034.97;2075889;28;20073;-50
2023/09/02 03:45:42;;;;;;;7.80;2.40;;;;;;;24.35;55.06;99041.59;2078513;28;20548;-50
2023/09/02 03:46:44;;;;;;;2.22;1.55;;;;;;;24.37;54.98;99038.63;2076628;28;20060;-48
2023/09/02 03:47:46;;;;;;;2.10;1.60;;;;;;;24.42;54.94;99038.78;2076490;28;20577;-50
2023/09/02 03:48:48;;;;;;;3.50;1.98;;;;;;;24.43;54.90;99043.13;2077290;28;20729;-48
2023/09/02 03:49:50;;;;;;;3.42;1.70;;;;;;;24.44;54.90;99034.81;2076334;28;20049;-49
2023/09/02 03:51:12;;;;;;;3.38;1.90;;;;;;;24.43;55.19;99038.59;2075876;28;20124;-50
2023/09/02 03:52:13;;;;;;;2.80;1.90;;;;;;;24.47;55.02;99038.94;2075127;28;20061;-49
2023/09/02 03:53:14;;;;;;;4.60;2.28;;;;;;;24.48;54.96;99040.56;2075083;28;20036;-49
2023/09/02 03:54:15;;;;;;;3.45;1.75;;;;;;;24.50;54.71;99054.75;2077414;28;20079;-52
2023/09/02 03:55:17;;;;;;;5.43;2.38;;;;;;;24.51;55.12;99051.78;2076676;28;20045;-48
2023/09/02 03:56:18;;;;;;;6.60;2.40;;;;;;;24.52;55.02;99047.22;2076826;28;20056;-49
2023/09/02 03:57:19;;;;;;;5.60;1.88;;;;;;;24.52;54.45;99045.31;2077191;28;20570;-49
2023/09/02 03:58:21;;;;;;;3.10;2.58;;;;;;;24.55;54.68;99043.22;2075852;28;20049;-51
2023/09/02 03:59:22;;;;;;;3.85;2.45;;;;;;;24.53;54.50;99049.66;2076557;28;20132;-49
2023/09/02 04:00:26;;;;;;;4.60;2.13;;;;;;;24.53;54.45;99046.13;2077675;28;20053;-49
2023/09/02 04:01:27;;;;;;;5.95;2.22;;;;;;;24.53;54.30;99046.13;2077565;28;20150;-50
2023/09/02 04:02:30;;;;;;;7.63;2.40;;;;;;;24.52;54.70;99052.63;2079137;28;20080;-51
2023/09/02 04:03:35;;;;;;;4.90;2.70;;;;;;;24.50;54.44;99039.28;2075491;28;20773;-49
2023/09/02 04:04:37;;;;;;;4.38;2.30;;;;;;;24.50;54.71;99043.91;2080959;28;20048;-50
2023/09/02 04:05:37;;;;;;;5.68;2.63;;;;;;;24.50;54.52;99035.75;2078998;28;20887;-50
2023/09/02 04:06:39;;;;;;;3.63;1.92;;;;;;;24.51;54.45;99043.66;2079220;28;20050;-48
2023/09/02 04:07:40;;;;;;;3.97;1.83;;;;;;;24.52;54.11;99036.34;2077583;28;20083;-49
2023/09/02 04:08:42;;;;;;;5.47;2.42;;;;;;;24.51;54.23;99034.69;2081450;28;20049;-49
2023/09/02 04:09:43;;;;;;;4.45;1.85;;;;;;;24.49;54.67;99044.97;2077245;28;20042;-50
2023/09/02 04:10:44;;;;;;;2.33;2.03;;;;;;;24.49;54.29;99045.78;2077973;28;20118;-49
2023/09/02 04:11:45;;;;;;;5.82;2.42;;;;;;;24.51;54.24;99045.53;2076624;28;20049;-50
2023/09/02 04:12:47;;;;;;;3.05;2.38;;;;;;;24.49;54.41;99043.06;2078326;28;20136;-49
2023/09/02 04:13:48;;;;;;;6.13;2.33;;;;;;;24.48;54.08;99046.00;2078494;28;20407;-50
2023/09/02 04:14:50;;;;;;;2.65;1.67;;;;;;;24.47;54.35;99053.31;2078361;28;20115;-50
2023/09/02 04:15:53;;;;;;;6.15;2.90;;;;;;;24.46;54.48;99050.81;2078439;28;20075;-48
2023/09/02 04:16:55;;;;;;;5.43;1.90;;;;;;;24.46;54.44;99048.97;2076386;28;20053;-49
2023/09/02 04:17:58;;;;;;;4.15;1.80;;;;;;;24.42;54.17;99045.00;2077924;28;20052;-48
2023/09/02 04:19:02;;;;;;;4.50;2.17;;;;;;;24.38;53.94;99051.16;2080634;28;20108;-48
2023/09/02 04:20:04;;;;;;;4.40;2.30;;;;;;;24.33;53.99;99045.59;2079545;28;20065;-49
2023/09/02 04:21:08;;;;;;;3.65;2.22;;;;;;;24.28;54.42;99057.94;2078737;28;20458;-50
2023/09/02 04:22:09;;;;;;;3.95;2.35;;;;;;;24.25;54.38;99055.69;2079872;28;20068;-49
2023/09/02 04:23:11;;;;;;;4.70;1.85;;;;;;;24.28;54.10;99047.09;2081930;28;20068;-48
2023/09/02 04:24:12;;;;;;;8.25;2.55;;;;;;;24.30;53.84;99050.41;2079477;28;20887;-49
2023/09/02 04:25:15;;;;;;;2.85;1.88;;;;;;;24.31;53.91;99046.63;2080066;28;20052;-49
2023/09/02 04:26:20;;;;;;;3.92;1.90;;;;;;;24.30;53.84;99047.69;2077470;28;20045;-51
2023/09/02 04:27:21;;;;;;;2.55;1.77;;;;;;;24.32;53.93;99042.03;2080775;28;20426;-50
2023/09/02 04:28:23;;;;;;;4.28;1.83;;;;;;;24.35;54.38;99046.16;2077860;28;20061;-49
2023/09/02 04:29:24;;;;;;;4.07;1.77;;;;;;;24.39;53.60;99041.94;2079668;28;20480;-49
2023/09/02 04:30:26;;;;;;;7.28;2.53;;;;;;;24.34;54.42;99045.34;2081704;28;20047;-48
2023/09/02 04:31:27;;;;;;;2.70;1.50;;;;;;;24.33;53.90;99042.88;2081203;28;20073;-48
2023/09/02 04:32:29;;;;;;;3.72;2.08;;;;;;;24.33;53.76;99045.59;2078254;28;20053;-50
2023/09/02 04:33:31;;;;;;;5.43;2.30;;;;;;;24.29;53.85;99043.34;2079104;28;20048;-48
2023/09/02 04:34:33;;;;;;;4.07;2.38;;;;;;;24.27;54.04;99044.63;2078683;28;20099;-49
2023/09/02 04:35:37;;;;;;;3.80;2.08;;;;;;;24.27;53.93;99047.34;2078235;28;20053;-51
2023/09/02 04:36:38;;;;;;;3.70;1.80;;;;;;;24.28;53.80;99052.50;2080246;28;20081;-51
2023/09/02 04:37:40;;;;;;;3.58;2.30;;;;;;;24.32;54.09;99047.44;2078237;28;20049;-52
2023/09/02 04:38:40;;;;;;;5.25;2.45;;;;;;;24.33;54.25;99053.72;2078837;28;20056;-48
2023/09/02 04:39:42;;;;;;;5.22;2.60;;;;;;;24.31;53.91;99052.06;2079954;28;20061;-50
2023/09/02 04:40:44;;;;;;;4.35;1.88;;;;;;;24.31;53.71;99052.06;2078097;28;20522;-53
2023/09/02 04:41:46;;;;;;;4.93;2.35;;;;;;;24.34;53.68;99049.94;2078186;28;20045;-50
2023/09/02 04:42:47;;;;;;;2.97;2.10;;;;;;;24.33;54.23;99051.84;2079494;28;20766;-48
2023/09/02 04:43:49;;;;;;;4.32;2.35;;;;;;;24.37;54.08;99057.63;2079762;28;20042;-49
2023/09/02 04:44:50;;;;;;;3.65;2.63;;;;;;;24.33;53.72;99054.53;2078679;28;20118;-49
2023/09/02 04:45:52;;;;;;;2.85;2.20;;;;;;;24.35;53.64;99051.59;2077834;28;20102;-49
2023/09/02 04:46:53;;;;;;;3.05;2.35;;;;;;;24.34;53.60;99052.66;2076037;28;20042;-49
2023/09/02 04:47:55;;;;;;;4.30;1.98;;;;;;;24.36;54.26;99054.09;2079543;28;20131;-48
2023/09/02 04:48:57;;;;;;;3.05;2.33;;;;;;;24.40;54.00;99049.00;2076367;28;20045;-52
2023/09/02 04:49:59;;;;;;;3.25;1.65;;;;;;;24.41;53.49;99051.50;2079610;28;20069;-51
2023/09/02 04:51:00;;;;;;;4.57;2.00;;;;;;;24.41;53.21;99053.41;2079069;28;20479;-53
2023/09/02 04:52:03;;;;;;;4.70;1.80;;;;;;;24.39;53.68;99058.22;2078004;28;20052;-50
2023/09/02 04:53:05;;;;;;;6.45;1.75;;;;;;;24.30;53.77;99049.59;2078780;28;20060;-48
2023/09/02 04:54:07;;;;;;;3.72;2.00;;;;;;;24.33;53.72;99048.31;2077643;28;20053;-52